sensor_id;sensor_type;location;lat;lon;timestamp;P1;durP1;ratioP1;P2;durP2;ratioP2
2840;SDS011;53423;49.224;12.074;2022-11-27T00:00:49;38.67;;;9.57;;
2840;SDS011;53423;49.224;12.074;2022-11-27T00:03:17;43.57;;;9.20;;
2840;SDS011;53423;49.224;12.074;2022-11-27T00:05:50;41.53;;;10.80;;
2840;SDS011;53423;49.224;12.074;2022-11-27T00:08:18;18.20;;;10.17;;
2840;SDS011;53423;49.224;12.074;2022-11-27T00:10:46;19.00;;;9.60;;
2840;SDS011;53423;49.224;12.074;2022-11-27T00:13:14;46.80;;;10.10;;
2840;SDS011;53423;49.224;12.074;2022-11-27T00:15:43;27.10;;;10.53;;
2840;SDS011;53423;49.224;12.074;2022-11-27T00:18:11;46.97;;;9.90;;
2840;SDS011;53423;49.224;12.074;2022-11-27T00:20:39;50.60;;;9.27;;
2840;SDS011;53423;49.224;12.074;2022-11-27T00:23:07;48.10;;;9.17;;
2840;SDS011;53423;49.224;12.074;2022-11-27T00:25:34;33.47;;;9.00;;
2840;SDS011;53423;49.224;12.074;2022-11-27T00:28:02;36.93;;;8.80;;
2840;SDS011;53423;49.224;12.074;2022-11-27T00:30:30;64.17;;;10.17;;
2840;SDS011;53423;49.224;12.074;2022-11-27T00:32:59;58.40;;;11.03;;
2840;SDS011;53423;49.224;12.074;2022-11-27T00:35:27;49.53;;;10.23;;
2840;SDS011;53423;49.224;12.074;2022-11-27T00:37:55;44.27;;;10.00;;
2840;SDS011;53423;49.224;12.074;2022-11-27T00:40:23;47.50;;;10.70;;
2840;SDS011;53423;49.224;12.074;2022-11-27T00:42:50;40.93;;;10.73;;
2840;SDS011;53423;49.224;12.074;2022-11-27T00:45:18;43.03;;;11.27;;
2840;SDS011;53423;49.224;12.074;2022-11-27T00:47:46;45.60;;;10.73;;
2840;SDS011;53423;49.224;12.074;2022-11-27T00:50:15;42.97;;;10.70;;
2840;SDS011;53423;49.224;12.074;2022-11-27T00:52:43;37.40;;;10.43;;
2840;SDS011;53423;49.224;12.074;2022-11-27T00:55:11;40.07;;;10.20;;
2840;SDS011;53423;49.224;12.074;2022-11-27T00:57:39;26.27;;;8.80;;
2840;SDS011;53423;49.224;12.074;2022-11-27T01:00:07;38.07;;;10.87;;
2840;SDS011;53423;49.224;12.074;2022-11-27T01:02:35;50.73;;;9.97;;
2840;SDS011;53423;49.224;12.074;2022-11-27T01:05:03;35.90;;;10.17;;
2840;SDS011;53423;49.224;12.074;2022-11-27T01:07:33;38.13;;;9.87;;
2840;SDS011;53423;49.224;12.074;2022-11-27T01:10:01;35.80;;;9.63;;
2840;SDS011;53423;49.224;12.074;2022-11-27T01:12:28;30.50;;;8.60;;
2840;SDS011;53423;49.224;12.074;2022-11-27T01:14:56;48.20;;;10.33;;
2840;SDS011;53423;49.224;12.074;2022-11-27T01:17:24;31.77;;;8.50;;
2840;SDS011;53423;49.224;12.074;2022-11-27T01:19:52;46.50;;;10.30;;
2840;SDS011;53423;49.224;12.074;2022-11-27T01:22:20;50.83;;;10.27;;
2840;SDS011;53423;49.224;12.074;2022-11-27T01:24:49;29.43;;;8.77;;
2840;SDS011;53423;49.224;12.074;2022-11-27T01:27:16;28.77;;;9.03;;
2840;SDS011;53423;49.224;12.074;2022-11-27T01:29:44;24.20;;;7.37;;
2840;SDS011;53423;49.224;12.074;2022-11-27T01:32:12;32.17;;;10.97;;
2840;SDS011;53423;49.224;12.074;2022-11-27T01:34:40;26.73;;;8.73;;
2840;SDS011;53423;49.224;12.074;2022-11-27T01:37:07;21.57;;;8.83;;
2840;SDS011;53423;49.224;12.074;2022-11-27T01:39:35;25.77;;;8.87;;
2840;SDS011;53423;49.224;12.074;2022-11-27T01:42:04;23.13;;;9.90;;
2840;SDS011;53423;49.224;12.074;2022-11-27T01:47:34;26.77;;;10.00;;
2840;SDS011;53423;49.224;12.074;2022-11-27T01:50:15;30.70;;;9.83;;
2840;SDS011;53423;49.224;12.074;2022-11-27T01:52:47;26.57;;;9.30;;
2840;SDS011;53423;49.224;12.074;2022-11-27T01:55:22;17.30;;;8.60;;
2840;SDS011;53423;49.224;12.074;2022-11-27T01:57:57;28.47;;;8.87;;
2840;SDS011;53423;49.224;12.074;2022-11-27T02:00:26;15.53;;;8.20;;
2840;SDS011;53423;49.224;12.074;2022-11-27T02:02:54;24.07;;;8.13;;
2840;SDS011;53423;49.224;12.074;2022-11-27T02:05:23;29.43;;;7.57;;
2840;SDS011;53423;49.224;12.074;2022-11-27T02:07:53;32.70;;;7.43;;
2840;SDS011;53423;49.224;12.074;2022-11-27T02:10:26;17.73;;;6.73;;
2840;SDS011;53423;49.224;12.074;2022-11-27T02:13:04;30.40;;;6.93;;
2840;SDS011;53423;49.224;12.074;2022-11-27T02:15:37;36.73;;;7.53;;
2840;SDS011;53423;49.224;12.074;2022-11-27T02:18:11;36.67;;;6.67;;
2840;SDS011;53423;49.224;12.074;2022-11-27T02:20:47;23.70;;;6.43;;
2840;SDS011;53423;49.224;12.074;2022-11-27T02:23:40;25.53;;;6.20;;
2840;SDS011;53423;49.224;12.074;2022-11-27T02:26:33;40.23;;;7.37;;
2840;SDS011;53423;49.224;12.074;2022-11-27T02:29:18;28.97;;;6.20;;
2840;SDS011;53423;49.224;12.074;2022-11-27T02:31:50;41.10;;;6.43;;
2840;SDS011;53423;49.224;12.074;2022-11-27T02:34:24;27.83;;;5.97;;
2840;SDS011;53423;49.224;12.074;2022-11-27T02:36:58;35.67;;;6.77;;
2840;SDS011;53423;49.224;12.074;2022-11-27T02:39:36;27.73;;;6.37;;
2840;SDS011;53423;49.224;12.074;2022-11-27T02:42:09;27.30;;;5.87;;
2840;SDS011;53423;49.224;12.074;2022-11-27T02:44:43;56.10;;;7.00;;
2840;SDS011;53423;49.224;12.074;2022-11-27T02:47:13;19.40;;;5.90;;
2840;SDS011;53423;49.224;12.074;2022-11-27T02:49:42;27.43;;;5.73;;
2840;SDS011;53423;49.224;12.074;2022-11-27T02:52:11;36.33;;;5.87;;
2840;SDS011;53423;49.224;12.074;2022-11-27T02:54:44;19.13;;;6.10;;
2840;SDS011;53423;49.224;12.074;2022-11-27T02:57:15;34.90;;;6.67;;
2840;SDS011;53423;49.224;12.074;2022-11-27T02:59:46;34.30;;;6.10;;
2840;SDS011;53423;49.224;12.074;2022-11-27T03:02:22;21.37;;;5.37;;
2840;SDS011;53423;49.224;12.074;2022-11-27T03:04:56;54.43;;;7.10;;
2840;SDS011;53423;49.224;12.074;2022-11-27T03:07:29;69.87;;;7.57;;
2840;SDS011;53423;49.224;12.074;2022-11-27T03:10:05;71.13;;;8.10;;
2840;SDS011;53423;49.224;12.074;2022-11-27T03:12:36;30.87;;;5.93;;
2840;SDS011;53423;49.224;12.074;2022-11-27T03:15:05;61.10;;;7.37;;
2840;SDS011;53423;49.224;12.074;2022-11-27T03:17:36;13.17;;;5.40;;
2840;SDS011;53423;49.224;12.074;2022-11-27T03:20:11;71.90;;;7.87;;
2840;SDS011;53423;49.224;12.074;2022-11-27T03:22:44;42.37;;;6.00;;
2840;SDS011;53423;49.224;12.074;2022-11-27T03:25:12;37.43;;;6.43;;
2840;SDS011;53423;49.224;12.074;2022-11-27T03:27:43;38.57;;;6.60;;
2840;SDS011;53423;49.224;12.074;2022-11-27T03:30:16;13.50;;;5.73;;
2840;SDS011;53423;49.224;12.074;2022-11-27T03:32:44;25.33;;;5.47;;
2840;SDS011;53423;49.224;12.074;2022-11-27T03:35:12;17.03;;;5.57;;
2840;SDS011;53423;49.224;12.074;2022-11-27T03:37:42;38.40;;;7.00;;
2840;SDS011;53423;49.224;12.074;2022-11-27T03:40:10;26.83;;;6.27;;
2840;SDS011;53423;49.224;12.074;2022-11-27T03:42:42;31.93;;;6.80;;
2840;SDS011;53423;49.224;12.074;2022-11-27T03:45:26;21.83;;;5.60;;
2840;SDS011;53423;49.224;12.074;2022-11-27T03:48:03;22.37;;;6.13;;
2840;SDS011;53423;49.224;12.074;2022-11-27T03:50:43;21.77;;;6.40;;
2840;SDS011;53423;49.224;12.074;2022-11-27T03:53:22;24.03;;;6.70;;
2840;SDS011;53423;49.224;12.074;2022-11-27T03:55:58;11.93;;;6.07;;
2840;SDS011;53423;49.224;12.074;2022-11-27T03:58:36;26.77;;;6.17;;
2840;SDS011;53423;49.224;12.074;2022-11-27T04:01:09;47.03;;;7.67;;
2840;SDS011;53423;49.224;12.074;2022-11-27T04:03:39;24.67;;;6.23;;
2840;SDS011;53423;49.224;12.074;2022-11-27T04:06:07;23.90;;;5.93;;
2840;SDS011;53423;49.224;12.074;2022-11-27T04:08:35;15.73;;;5.90;;
2840;SDS011;53423;49.224;12.074;2022-11-27T04:11:02;18.77;;;5.77;;
2840;SDS011;53423;49.224;12.074;2022-11-27T04:13:30;22.87;;;6.10;;
2840;SDS011;53423;49.224;12.074;2022-11-27T04:15:59;23.97;;;5.90;;
2840;SDS011;53423;49.224;12.074;2022-11-27T04:18:28;17.83;;;5.83;;
2840;SDS011;53423;49.224;12.074;2022-11-27T04:20:56;12.03;;;5.77;;
2840;SDS011;53423;49.224;12.074;2022-11-27T04:23:24;35.17;;;6.47;;
2840;SDS011;53423;49.224;12.074;2022-11-27T04:25:52;35.33;;;6.53;;
2840;SDS011;53423;49.224;12.074;2022-11-27T04:28:19;13.27;;;6.17;;
2840;SDS011;53423;49.224;12.074;2022-11-27T04:30:49;28.90;;;6.30;;
2840;SDS011;53423;49.224;12.074;2022-11-27T04:33:18;18.37;;;6.00;;
2840;SDS011;53423;49.224;12.074;2022-11-27T04:35:47;16.50;;;5.17;;
2840;SDS011;53423;49.224;12.074;2022-11-27T04:38:15;29.03;;;5.97;;
2840;SDS011;53423;49.224;12.074;2022-11-27T04:40:43;9.60;;;5.70;;
2840;SDS011;53423;49.224;12.074;2022-11-27T04:43:11;11.73;;;5.33;;
2840;SDS011;53423;49.224;12.074;2022-11-27T04:45:39;20.63;;;6.10;;
2840;SDS011;53423;49.224;12.074;2022-11-27T04:48:08;21.03;;;5.57;;
2840;SDS011;53423;49.224;12.074;2022-11-27T04:50:36;25.60;;;6.07;;
2840;SDS011;53423;49.224;12.074;2022-11-27T04:53:05;41.67;;;7.10;;
2840;SDS011;53423;49.224;12.074;2022-11-27T04:55:33;33.03;;;6.50;;
2840;SDS011;53423;49.224;12.074;2022-11-27T04:58:01;18.53;;;6.50;;
2840;SDS011;53423;49.224;12.074;2022-11-27T05:00:29;21.47;;;6.40;;
2840;SDS011;53423;49.224;12.074;2022-11-27T05:02:57;25.63;;;6.80;;
2840;SDS011;53423;49.224;12.074;2022-11-27T05:05:25;24.60;;;6.83;;
2840;SDS011;53423;49.224;12.074;2022-11-27T05:07:53;33.03;;;6.63;;
2840;SDS011;53423;49.224;12.074;2022-11-27T05:10:22;16.13;;;6.23;;
2840;SDS011;53423;49.224;12.074;2022-11-27T05:12:52;12.40;;;6.27;;
2840;SDS011;53423;49.224;12.074;2022-11-27T05:15:20;14.87;;;5.73;;
2840;SDS011;53423;49.224;12.074;2022-11-27T05:17:48;33.27;;;6.87;;
2840;SDS011;53423;49.224;12.074;2022-11-27T05:20:15;31.97;;;6.77;;
2840;SDS011;53423;49.224;12.074;2022-11-27T05:22:43;21.73;;;7.23;;
2840;SDS011;53423;49.224;12.074;2022-11-27T05:25:13;12.63;;;5.90;;
2840;SDS011;53423;49.224;12.074;2022-11-27T05:27:42;25.50;;;7.37;;
2840;SDS011;53423;49.224;12.074;2022-11-27T05:30:10;15.60;;;6.17;;
2840;SDS011;53423;49.224;12.074;2022-11-27T05:32:38;14.20;;;6.93;;
2840;SDS011;53423;49.224;12.074;2022-11-27T05:35:06;8.37;;;6.60;;
2840;SDS011;53423;49.224;12.074;2022-11-27T05:37:34;11.93;;;6.53;;
2840;SDS011;53423;49.224;12.074;2022-11-27T05:40:02;12.33;;;7.13;;
2840;SDS011;53423;49.224;12.074;2022-11-27T05:42:31;9.70;;;7.87;;
2840;SDS011;53423;49.224;12.074;2022-11-27T05:45:00;17.47;;;8.10;;
2840;SDS011;53423;49.224;12.074;2022-11-27T05:47:28;16.40;;;8.97;;
2840;SDS011;53423;49.224;12.074;2022-11-27T05:49:55;10.17;;;7.73;;
2840;SDS011;53423;49.224;12.074;2022-11-27T05:52:23;13.60;;;6.50;;
2840;SDS011;53423;49.224;12.074;2022-11-27T05:54:51;14.50;;;6.50;;
2840;SDS011;53423;49.224;12.074;2022-11-27T05:57:20;13.97;;;6.50;;
2840;SDS011;53423;49.224;12.074;2022-11-27T05:59:47;16.43;;;8.03;;
2840;SDS011;53423;49.224;12.074;2022-11-27T06:02:17;10.93;;;8.57;;
2840;SDS011;53423;49.224;12.074;2022-11-27T06:04:51;16.93;;;8.03;;
2840;SDS011;53423;49.224;12.074;2022-11-27T06:07:19;15.10;;;8.27;;
2840;SDS011;53423;49.224;12.074;2022-11-27T06:09:47;16.67;;;10.27;;
2840;SDS011;53423;49.224;12.074;2022-11-27T06:12:14;19.47;;;10.57;;
2840;SDS011;53423;49.224;12.074;2022-11-27T06:14:42;17.17;;;10.07;;
2840;SDS011;53423;49.224;12.074;2022-11-27T06:17:10;14.57;;;9.27;;
2840;SDS011;53423;49.224;12.074;2022-11-27T06:19:42;17.10;;;8.70;;
2840;SDS011;53423;49.224;12.074;2022-11-27T06:22:10;17.70;;;13.20;;
2840;SDS011;53423;49.224;12.074;2022-11-27T06:24:37;16.90;;;9.13;;
2840;SDS011;53423;49.224;12.074;2022-11-27T06:27:06;16.63;;;8.43;;
2840;SDS011;53423;49.224;12.074;2022-11-27T06:29:33;11.67;;;6.73;;
2840;SDS011;53423;49.224;12.074;2022-11-27T06:32:03;14.13;;;7.10;;
2840;SDS011;53423;49.224;12.074;2022-11-27T06:34:31;11.43;;;6.50;;
2840;SDS011;53423;49.224;12.074;2022-11-27T06:37:01;17.30;;;6.43;;
2840;SDS011;53423;49.224;12.074;2022-11-27T06:39:28;12.20;;;7.67;;
2840;SDS011;53423;49.224;12.074;2022-11-27T06:41:56;12.10;;;7.03;;
2840;SDS011;53423;49.224;12.074;2022-11-27T06:44:24;12.53;;;7.00;;
2840;SDS011;53423;49.224;12.074;2022-11-27T06:46:52;13.93;;;7.40;;
2840;SDS011;53423;49.224;12.074;2022-11-27T06:49:20;18.37;;;7.47;;
2840;SDS011;53423;49.224;12.074;2022-11-27T06:51:48;11.90;;;6.27;;
2840;SDS011;53423;49.224;12.074;2022-11-27T06:54:17;18.13;;;6.83;;
2840;SDS011;53423;49.224;12.074;2022-11-27T06:56:47;11.93;;;7.47;;
2840;SDS011;53423;49.224;12.074;2022-11-27T06:59:16;14.97;;;7.73;;
2840;SDS011;53423;49.224;12.074;2022-11-27T07:01:44;10.33;;;6.33;;
2840;SDS011;53423;49.224;12.074;2022-11-27T07:04:13;11.00;;;6.43;;
2840;SDS011;53423;49.224;12.074;2022-11-27T07:06:41;15.23;;;6.87;;
2840;SDS011;53423;49.224;12.074;2022-11-27T07:09:09;12.37;;;7.50;;
2840;SDS011;53423;49.224;12.074;2022-11-27T07:11:38;12.20;;;7.03;;
2840;SDS011;53423;49.224;12.074;2022-11-27T07:14:06;14.63;;;7.50;;
2840;SDS011;53423;49.224;12.074;2022-11-27T07:16:34;27.53;;;7.73;;
2840;SDS011;53423;49.224;12.074;2022-11-27T07:19:03;14.43;;;7.63;;
2840;SDS011;53423;49.224;12.074;2022-11-27T07:21:35;15.63;;;7.20;;
2840;SDS011;53423;49.224;12.074;2022-11-27T07:24:04;15.97;;;7.27;;
2840;SDS011;53423;49.224;12.074;2022-11-27T07:26:32;11.00;;;7.00;;
2840;SDS011;53423;49.224;12.074;2022-11-27T07:29:01;12.97;;;7.40;;
2840;SDS011;53423;49.224;12.074;2022-11-27T07:31:29;12.07;;;8.20;;
2840;SDS011;53423;49.224;12.074;2022-11-27T07:33:57;17.80;;;8.60;;
2840;SDS011;53423;49.224;12.074;2022-11-27T07:36:26;22.17;;;9.40;;
2840;SDS011;53423;49.224;12.074;2022-11-27T07:38:55;16.07;;;7.37;;
2840;SDS011;53423;49.224;12.074;2022-11-27T07:41:23;16.80;;;7.57;;
2840;SDS011;53423;49.224;12.074;2022-11-27T07:43:57;13.57;;;7.07;;
2840;SDS011;53423;49.224;12.074;2022-11-27T07:46:26;16.87;;;7.93;;
2840;SDS011;53423;49.224;12.074;2022-11-27T07:48:55;20.07;;;7.80;;
2840;SDS011;53423;49.224;12.074;2022-11-27T07:51:23;20.40;;;7.57;;
2840;SDS011;53423;49.224;12.074;2022-11-27T07:53:51;18.40;;;8.83;;
2840;SDS011;53423;49.224;12.074;2022-11-27T07:56:18;17.07;;;9.50;;
2840;SDS011;53423;49.224;12.074;2022-11-27T07:58:46;13.17;;;8.40;;
2840;SDS011;53423;49.224;12.074;2022-11-27T08:01:15;19.60;;;8.77;;
2840;SDS011;53423;49.224;12.074;2022-11-27T08:03:46;17.23;;;9.20;;
2840;SDS011;53423;49.224;12.074;2022-11-27T08:06:15;18.83;;;9.10;;
2840;SDS011;53423;49.224;12.074;2022-11-27T08:08:44;19.17;;;10.17;;
2840;SDS011;53423;49.224;12.074;2022-11-27T08:11:15;24.50;;;10.90;;
2840;SDS011;53423;49.224;12.074;2022-11-27T08:13:44;19.73;;;10.57;;
2840;SDS011;53423;49.224;12.074;2022-11-27T08:16:12;29.73;;;9.47;;
2840;SDS011;53423;49.224;12.074;2022-11-27T08:18:40;15.43;;;9.80;;
2840;SDS011;53423;49.224;12.074;2022-11-27T08:21:10;16.77;;;9.43;;
2840;SDS011;53423;49.224;12.074;2022-11-27T08:23:38;21.23;;;10.50;;
2840;SDS011;53423;49.224;12.074;2022-11-27T08:26:07;17.20;;;9.13;;
2840;SDS011;53423;49.224;12.074;2022-11-27T08:28:36;18.33;;;12.47;;
2840;SDS011;53423;49.224;12.074;2022-11-27T08:31:05;20.50;;;11.40;;
2840;SDS011;53423;49.224;12.074;2022-11-27T08:33:34;19.70;;;10.27;;
2840;SDS011;53423;49.224;12.074;2022-11-27T08:36:03;16.13;;;10.10;;
2840;SDS011;53423;49.224;12.074;2022-11-27T08:38:37;17.43;;;11.37;;
2840;SDS011;53423;49.224;12.074;2022-11-27T08:41:05;14.83;;;10.80;;
2840;SDS011;53423;49.224;12.074;2022-11-27T08:43:34;15.53;;;10.23;;
2840;SDS011;53423;49.224;12.074;2022-11-27T08:46:02;18.70;;;10.13;;
2840;SDS011;53423;49.224;12.074;2022-11-27T08:48:31;17.10;;;9.97;;
2840;SDS011;53423;49.224;12.074;2022-11-27T08:51:03;16.10;;;10.10;;
2840;SDS011;53423;49.224;12.074;2022-11-27T08:53:32;17.67;;;9.70;;
2840;SDS011;53423;49.224;12.074;2022-11-27T08:56:05;17.53;;;10.23;;
2840;SDS011;53423;49.224;12.074;2022-11-27T08:58:34;20.57;;;10.90;;
2840;SDS011;53423;49.224;12.074;2022-11-27T09:01:05;16.10;;;9.27;;
2840;SDS011;53423;49.224;12.074;2022-11-27T09:03:34;13.73;;;8.83;;
2840;SDS011;53423;49.224;12.074;2022-11-27T09:06:04;13.17;;;8.83;;
2840;SDS011;53423;49.224;12.074;2022-11-27T09:08:33;14.13;;;9.30;;
2840;SDS011;53423;49.224;12.074;2022-11-27T09:11:00;16.43;;;9.20;;
2840;SDS011;53423;49.224;12.074;2022-11-27T09:13:31;15.40;;;9.20;;
2840;SDS011;53423;49.224;12.074;2022-11-27T09:16:02;16.53;;;10.30;;
2840;SDS011;53423;49.224;12.074;2022-11-27T09:18:30;15.57;;;10.50;;
2840;SDS011;53423;49.224;12.074;2022-11-27T09:20:58;13.27;;;8.37;;
2840;SDS011;53423;49.224;12.074;2022-11-27T09:23:28;14.60;;;9.20;;
2840;SDS011;53423;49.224;12.074;2022-11-27T09:25:57;14.07;;;9.03;;
2840;SDS011;53423;49.224;12.074;2022-11-27T09:28:25;14.90;;;8.83;;
2840;SDS011;53423;49.224;12.074;2022-11-27T09:30:59;15.17;;;9.87;;
2840;SDS011;53423;49.224;12.074;2022-11-27T09:33:30;19.13;;;12.30;;
2840;SDS011;53423;49.224;12.074;2022-11-27T09:36:02;21.23;;;13.33;;
2840;SDS011;53423;49.224;12.074;2022-11-27T09:38:32;17.80;;;10.90;;
2840;SDS011;53423;49.224;12.074;2022-11-27T09:41:02;16.10;;;11.23;;
2840;SDS011;53423;49.224;12.074;2022-11-27T09:43:42;14.93;;;9.80;;
2840;SDS011;53423;49.224;12.074;2022-11-27T09:46:23;13.80;;;9.03;;
2840;SDS011;53423;49.224;12.074;2022-11-27T09:48:56;13.50;;;9.30;;
2840;SDS011;53423;49.224;12.074;2022-11-27T09:51:28;14.67;;;10.07;;
2840;SDS011;53423;49.224;12.074;2022-11-27T09:54:02;17.63;;;11.13;;
2840;SDS011;53423;49.224;12.074;2022-11-27T09:56:34;14.87;;;9.73;;
2840;SDS011;53423;49.224;12.074;2022-11-27T09:59:03;13.67;;;10.33;;
2840;SDS011;53423;49.224;12.074;2022-11-27T10:01:42;16.10;;;9.93;;
2840;SDS011;53423;49.224;12.074;2022-11-27T10:04:16;21.57;;;13.90;;
2840;SDS011;53423;49.224;12.074;2022-11-27T10:06:51;19.00;;;10.67;;
2840;SDS011;53423;49.224;12.074;2022-11-27T10:09:33;18.50;;;12.03;;
2840;SDS011;53423;49.224;12.074;2022-11-27T10:12:13;19.10;;;14.03;;
2840;SDS011;53423;49.224;12.074;2022-11-27T10:14:54;16.67;;;10.87;;
2840;SDS011;53423;49.224;12.074;2022-11-27T10:17:32;14.90;;;10.93;;
2840;SDS011;53423;49.224;12.074;2022-11-27T10:20:11;15.20;;;11.53;;
2840;SDS011;53423;49.224;12.074;2022-11-27T10:22:49;14.43;;;9.97;;
2840;SDS011;53423;49.224;12.074;2022-11-27T10:25:24;16.73;;;11.90;;
2840;SDS011;53423;49.224;12.074;2022-11-27T10:27:59;15.67;;;11.30;;
2840;SDS011;53423;49.224;12.074;2022-11-27T10:30:36;16.80;;;10.77;;
2840;SDS011;53423;49.224;12.074;2022-11-27T10:33:17;16.30;;;10.50;;
2840;SDS011;53423;49.224;12.074;2022-11-27T10:35:49;18.60;;;13.13;;
2840;SDS011;53423;49.224;12.074;2022-11-27T10:38:18;17.60;;;13.00;;
2840;SDS011;53423;49.224;12.074;2022-11-27T10:40:51;18.47;;;12.90;;
2840;SDS011;53423;49.224;12.074;2022-11-27T10:43:26;16.63;;;11.90;;
2840;SDS011;53423;49.224;12.074;2022-11-27T10:45:55;15.23;;;11.40;;
2840;SDS011;53423;49.224;12.074;2022-11-27T10:48:29;14.67;;;10.77;;
2840;SDS011;53423;49.224;12.074;2022-11-27T10:50:57;15.77;;;10.23;;
2840;SDS011;53423;49.224;12.074;2022-11-27T10:53:26;15.03;;;10.30;;
2840;SDS011;53423;49.224;12.074;2022-11-27T10:56:12;15.43;;;11.40;;
2840;SDS011;53423;49.224;12.074;2022-11-27T10:58:50;15.70;;;11.13;;
2840;SDS011;53423;49.224;12.074;2022-11-27T11:01:22;14.50;;;11.43;;
2840;SDS011;53423;49.224;12.074;2022-11-27T11:04:04;19.53;;;12.90;;
2840;SDS011;53423;49.224;12.074;2022-11-27T11:06:53;15.20;;;10.43;;
2840;SDS011;53423;49.224;12.074;2022-11-27T11:09:23;16.67;;;10.97;;
2840;SDS011;53423;49.224;12.074;2022-11-27T11:12:04;16.53;;;11.47;;
2840;SDS011;53423;49.224;12.074;2022-11-27T11:14:33;14.03;;;10.07;;
2840;SDS011;53423;49.224;12.074;2022-11-27T11:17:13;16.47;;;10.57;;
2840;SDS011;53423;49.224;12.074;2022-11-27T11:19:44;16.63;;;11.53;;
2840;SDS011;53423;49.224;12.074;2022-11-27T11:22:13;17.03;;;10.90;;
2840;SDS011;53423;49.224;12.074;2022-11-27T11:24:43;18.30;;;10.93;;
2840;SDS011;53423;49.224;12.074;2022-11-27T11:27:14;15.80;;;11.90;;
2840;SDS011;53423;49.224;12.074;2022-11-27T11:29:48;17.27;;;12.03;;
2840;SDS011;53423;49.224;12.074;2022-11-27T11:32:20;16.93;;;11.83;;
2840;SDS011;53423;49.224;12.074;2022-11-27T11:34:52;14.20;;;10.73;;
2840;SDS011;53423;49.224;12.074;2022-11-27T11:37:27;16.13;;;11.03;;
2840;SDS011;53423;49.224;12.074;2022-11-27T11:39:57;15.43;;;11.47;;
2840;SDS011;53423;49.224;12.074;2022-11-27T11:42:29;17.23;;;11.60;;
2840;SDS011;53423;49.224;12.074;2022-11-27T11:45:01;17.57;;;12.33;;
2840;SDS011;53423;49.224;12.074;2022-11-27T11:47:30;20.10;;;13.87;;
2840;SDS011;53423;49.224;12.074;2022-11-27T11:50:00;19.03;;;12.73;;
2840;SDS011;53423;49.224;12.074;2022-11-27T11:52:37;16.87;;;11.80;;
2840;SDS011;53423;49.224;12.074;2022-11-27T11:55:18;14.20;;;11.33;;
2840;SDS011;53423;49.224;12.074;2022-11-27T11:58:02;13.97;;;10.60;;
2840;SDS011;53423;49.224;12.074;2022-11-27T12:00:45;16.13;;;11.30;;
2840;SDS011;53423;49.224;12.074;2022-11-27T12:03:37;17.13;;;12.43;;
2840;SDS011;53423;49.224;12.074;2022-11-27T12:06:34;12.10;;;9.50;;
2840;SDS011;53423;49.224;12.074;2022-11-27T12:09:12;10.63;;;8.00;;
2840;SDS011;53423;49.224;12.074;2022-11-27T12:11:51;11.50;;;8.80;;
2840;SDS011;53423;49.224;12.074;2022-11-27T12:14:27;14.03;;;9.10;;
2840;SDS011;53423;49.224;12.074;2022-11-27T12:17:11;13.43;;;9.87;;
2840;SDS011;53423;49.224;12.074;2022-11-27T12:19:51;12.03;;;10.03;;
2840;SDS011;53423;49.224;12.074;2022-11-27T12:22:38;11.13;;;8.30;;
2840;SDS011;53423;49.224;12.074;2022-11-27T12:25:29;10.17;;;7.80;;
2840;SDS011;53423;49.224;12.074;2022-11-27T12:28:12;10.30;;;8.00;;
2840;SDS011;53423;49.224;12.074;2022-11-27T12:30:54;10.07;;;7.67;;
2840;SDS011;53423;49.224;12.074;2022-11-27T12:36:26;12.20;;;8.33;;
2840;SDS011;53423;49.224;12.074;2022-11-27T12:39:16;13.47;;;8.80;;
2840;SDS011;53423;49.224;12.074;2022-11-27T12:41:58;10.80;;;8.93;;
2840;SDS011;53423;49.224;12.074;2022-11-27T12:44:35;14.43;;;10.13;;
2840;SDS011;53423;49.224;12.074;2022-11-27T12:47:17;12.50;;;9.67;;
2840;SDS011;53423;49.224;12.074;2022-11-27T12:49:50;12.37;;;9.53;;
2840;SDS011;53423;49.224;12.074;2022-11-27T12:52:24;13.53;;;10.03;;
2840;SDS011;53423;49.224;12.074;2022-11-27T12:54:56;14.43;;;10.97;;
2840;SDS011;53423;49.224;12.074;2022-11-27T12:57:30;13.47;;;10.30;;
2840;SDS011;53423;49.224;12.074;2022-11-27T13:00:03;15.87;;;11.53;;
2840;SDS011;53423;49.224;12.074;2022-11-27T13:02:34;15.43;;;11.00;;
2840;SDS011;53423;49.224;12.074;2022-11-27T13:05:05;16.73;;;12.77;;
2840;SDS011;53423;49.224;12.074;2022-11-27T13:07:39;15.30;;;10.97;;
2840;SDS011;53423;49.224;12.074;2022-11-27T13:10:14;13.57;;;10.47;;
2840;SDS011;53423;49.224;12.074;2022-11-27T13:12:50;13.77;;;10.67;;
2840;SDS011;53423;49.224;12.074;2022-11-27T13:15:27;13.20;;;10.47;;
2840;SDS011;53423;49.224;12.074;2022-11-27T13:17:59;14.50;;;11.20;;
2840;SDS011;53423;49.224;12.074;2022-11-27T13:20:34;14.00;;;10.50;;
2840;SDS011;53423;49.224;12.074;2022-11-27T13:23:04;15.23;;;10.30;;
2840;SDS011;53423;49.224;12.074;2022-11-27T13:25:34;15.33;;;11.03;;
2840;SDS011;53423;49.224;12.074;2022-11-27T13:28:12;13.13;;;10.43;;
2840;SDS011;53423;49.224;12.074;2022-11-27T13:30:47;16.67;;;11.43;;
2840;SDS011;53423;49.224;12.074;2022-11-27T13:33:20;14.40;;;11.10;;
2840;SDS011;53423;49.224;12.074;2022-11-27T13:35:59;15.57;;;10.67;;
2840;SDS011;53423;49.224;12.074;2022-11-27T13:38:29;15.13;;;11.30;;
2840;SDS011;53423;49.224;12.074;2022-11-27T13:40:59;14.60;;;10.77;;
2840;SDS011;53423;49.224;12.074;2022-11-27T13:43:34;13.20;;;10.33;;
2840;SDS011;53423;49.224;12.074;2022-11-27T13:46:09;13.60;;;10.50;;
2840;SDS011;53423;49.224;12.074;2022-11-27T13:48:46;13.47;;;10.30;;
2840;SDS011;53423;49.224;12.074;2022-11-27T13:51:23;12.73;;;8.73;;
2840;SDS011;53423;49.224;12.074;2022-11-27T13:54:03;12.03;;;9.53;;
2840;SDS011;53423;49.224;12.074;2022-11-27T13:56:35;11.93;;;9.47;;
2840;SDS011;53423;49.224;12.074;2022-11-27T13:59:13;15.60;;;10.17;;
2840;SDS011;53423;49.224;12.074;2022-11-27T14:01:51;12.70;;;9.47;;
2840;SDS011;53423;49.224;12.074;2022-11-27T14:04:21;14.63;;;10.17;;
2840;SDS011;53423;49.224;12.074;2022-11-27T14:06:52;14.63;;;9.97;;
2840;SDS011;53423;49.224;12.074;2022-11-27T14:09:30;12.83;;;10.23;;
2840;SDS011;53423;49.224;12.074;2022-11-27T14:12:13;13.53;;;10.60;;
2840;SDS011;53423;49.224;12.074;2022-11-27T14:14:44;14.77;;;10.97;;
2840;SDS011;53423;49.224;12.074;2022-11-27T14:17:25;12.97;;;9.63;;
2840;SDS011;53423;49.224;12.074;2022-11-27T14:20:01;14.10;;;10.40;;
2840;SDS011;53423;49.224;12.074;2022-11-27T14:22:33;14.77;;;10.33;;
2840;SDS011;53423;49.224;12.074;2022-11-27T14:25:30;13.73;;;10.73;;
2840;SDS011;53423;49.224;12.074;2022-11-27T14:28:07;13.60;;;10.23;;
2840;SDS011;53423;49.224;12.074;2022-11-27T14:30:42;14.23;;;10.60;;
2840;SDS011;53423;49.224;12.074;2022-11-27T14:33:16;16.57;;;11.70;;
2840;SDS011;53423;49.224;12.074;2022-11-27T14:35:49;14.20;;;11.20;;
2840;SDS011;53423;49.224;12.074;2022-11-27T14:38:17;14.00;;;10.80;;
2840;SDS011;53423;49.224;12.074;2022-11-27T14:40:45;14.50;;;11.20;;
2840;SDS011;53423;49.224;12.074;2022-11-27T14:43:15;14.77;;;11.73;;
2840;SDS011;53423;49.224;12.074;2022-11-27T14:45:44;16.27;;;11.30;;
2840;SDS011;53423;49.224;12.074;2022-11-27T14:48:20;13.77;;;11.07;;
2840;SDS011;53423;49.224;12.074;2022-11-27T14:50:49;12.37;;;10.37;;
2840;SDS011;53423;49.224;12.074;2022-11-27T14:53:22;14.10;;;10.77;;
2840;SDS011;53423;49.224;12.074;2022-11-27T14:55:53;15.07;;;10.37;;
2840;SDS011;53423;49.224;12.074;2022-11-27T14:58:25;13.87;;;10.93;;
2840;SDS011;53423;49.224;12.074;2022-11-27T15:00:56;14.27;;;10.90;;